sensor_id;sensor_type;location;lat;lon;timestamp;P1;durP1;ratioP1;P2;durP2;ratioP2
34765;SDS011;20984;43.508;1.504;2023-07-16T00:02:13;7.88;;;2.92;;
34765;SDS011;20984;43.508;1.504;2023-07-16T00:04:39;9.48;;;3.05;;
34765;SDS011;20984;43.508;1.504;2023-07-16T00:07:05;9.07;;;3.42;;
34765;SDS011;20984;43.508;1.504;2023-07-16T00:09:31;6.93;;;3.22;;
34765;SDS011;20984;43.508;1.504;2023-07-16T00:11:56;7.10;;;2.90;;
34765;SDS011;20984;43.508;1.504;2023-07-16T00:14:22;6.75;;;3.45;;
34765;SDS011;20984;43.508;1.504;2023-07-16T00:16:48;8.25;;;3.08;;
34765;SDS011;20984;43.508;1.504;2023-07-16T00:19:13;7.15;;;2.97;;
34765;SDS011;20984;43.508;1.504;2023-07-16T00:21:40;5.90;;;3.00;;
34765;SDS011;20984;43.508;1.504;2023-07-16T00:24:05;4.65;;;3.13;;
34765;SDS011;20984;43.508;1.504;2023-07-16T00:26:31;7.45;;;3.15;;
34765;SDS011;20984;43.508;1.504;2023-07-16T00:28:57;8.25;;;2.88;;
34765;SDS011;20984;43.508;1.504;2023-07-16T00:31:22;11.50;;;3.97;;
34765;SDS011;20984;43.508;1.504;2023-07-16T00:33:48;6.93;;;3.60;;
34765;SDS011;20984;43.508;1.504;2023-07-16T00:36:14;5.78;;;2.95;;
34765;SDS011;20984;43.508;1.504;2023-07-16T00:38:39;5.38;;;2.50;;
34765;SDS011;20984;43.508;1.504;2023-07-16T00:41:06;6.82;;;3.20;;
34765;SDS011;20984;43.508;1.504;2023-07-16T00:43:32;6.10;;;3.28;;
34765;SDS011;20984;43.508;1.504;2023-07-16T00:45:57;8.57;;;4.10;;
34765;SDS011;20984;43.508;1.504;2023-07-16T00:48:23;6.78;;;3.25;;
34765;SDS011;20984;43.508;1.504;2023-07-16T00:50:50;6.72;;;2.90;;
34765;SDS011;20984;43.508;1.504;2023-07-16T00:53:17;8.35;;;3.70;;
34765;SDS011;20984;43.508;1.504;2023-07-16T00:55:44;6.05;;;2.95;;
34765;SDS011;20984;43.508;1.504;2023-07-16T00:58:10;7.35;;;2.83;;
34765;SDS011;20984;43.508;1.504;2023-07-16T01:00:37;7.93;;;3.10;;
34765;SDS011;20984;43.508;1.504;2023-07-16T01:03:04;9.10;;;3.05;;
34765;SDS011;20984;43.508;1.504;2023-07-16T01:08:45;13.07;;;3.65;;
34765;SDS011;20984;43.508;1.504;2023-07-16T01:11:18;6.25;;;2.60;;
34765;SDS011;20984;43.508;1.504;2023-07-16T01:13:44;7.63;;;2.97;;
34765;SDS011;20984;43.508;1.504;2023-07-16T01:16:23;8.35;;;3.47;;
34765;SDS011;20984;43.508;1.504;2023-07-16T01:18:50;7.32;;;2.90;;
34765;SDS011;20984;43.508;1.504;2023-07-16T01:21:17;6.18;;;2.97;;
34765;SDS011;20984;43.508;1.504;2023-07-16T01:31:41;9.65;;;2.90;;
34765;SDS011;20984;43.508;1.504;2023-07-16T01:34:08;7.38;;;2.92;;
34765;SDS011;20984;43.508;1.504;2023-07-16T01:36:35;6.32;;;3.30;;
34765;SDS011;20984;43.508;1.504;2023-07-16T01:39:02;7.97;;;2.78;;
34765;SDS011;20984;43.508;1.504;2023-07-16T01:41:28;10.82;;;3.30;;
34765;SDS011;20984;43.508;1.504;2023-07-16T01:43:54;10.65;;;3.38;;
34765;SDS011;20984;43.508;1.504;2023-07-16T01:46:20;8.02;;;2.90;;
34765;SDS011;20984;43.508;1.504;2023-07-16T01:48:46;4.75;;;2.35;;
34765;SDS011;20984;43.508;1.504;2023-07-16T01:51:12;7.60;;;2.95;;
34765;SDS011;20984;43.508;1.504;2023-07-16T01:53:39;9.55;;;2.70;;
34765;SDS011;20984;43.508;1.504;2023-07-16T01:56:05;4.90;;;2.50;;
34765;SDS011;20984;43.508;1.504;2023-07-16T01:58:31;11.05;;;3.10;;
34765;SDS011;20984;43.508;1.504;2023-07-16T02:00:57;9.35;;;3.28;;
34765;SDS011;20984;43.508;1.504;2023-07-16T02:03:22;8.07;;;3.33;;
34765;SDS011;20984;43.508;1.504;2023-07-16T02:05:48;7.30;;;3.25;;
34765;SDS011;20984;43.508;1.504;2023-07-16T02:08:14;4.57;;;2.70;;
34765;SDS011;20984;43.508;1.504;2023-07-16T02:10:40;4.78;;;2.78;;
34765;SDS011;20984;43.508;1.504;2023-07-16T02:13:05;8.93;;;2.88;;
34765;SDS011;20984;43.508;1.504;2023-07-16T02:15:31;7.35;;;2.40;;
34765;SDS011;20984;43.508;1.504;2023-07-16T02:17:56;8.32;;;3.30;;
34765;SDS011;20984;43.508;1.504;2023-07-16T02:20:22;8.05;;;2.80;;
34765;SDS011;20984;43.508;1.504;2023-07-16T02:22:48;8.77;;;3.17;;
34765;SDS011;20984;43.508;1.504;2023-07-16T02:25:13;5.00;;;2.50;;
34765;SDS011;20984;43.508;1.504;2023-07-16T02:27:39;7.60;;;2.75;;
34765;SDS011;20984;43.508;1.504;2023-07-16T02:30:05;4.72;;;2.67;;
34765;SDS011;20984;43.508;1.504;2023-07-16T02:32:31;5.75;;;2.50;;
34765;SDS011;20984;43.508;1.504;2023-07-16T02:34:58;8.93;;;3.05;;
34765;SDS011;20984;43.508;1.504;2023-07-16T02:37:23;6.07;;;2.97;;
34765;SDS011;20984;43.508;1.504;2023-07-16T02:39:49;6.53;;;2.75;;
34765;SDS011;20984;43.508;1.504;2023-07-16T02:42:15;7.60;;;2.60;;
34765;SDS011;20984;43.508;1.504;2023-07-16T02:44:40;5.97;;;2.85;;
34765;SDS011;20984;43.508;1.504;2023-07-16T02:47:12;11.02;;;2.92;;
34765;SDS011;20984;43.508;1.504;2023-07-16T02:49:38;7.30;;;3.17;;
34765;SDS011;20984;43.508;1.504;2023-07-16T02:52:04;8.82;;;3.35;;
34765;SDS011;20984;43.508;1.504;2023-07-16T02:54:31;6.72;;;2.53;;
34765;SDS011;20984;43.508;1.504;2023-07-16T02:56:57;10.32;;;2.75;;
34765;SDS011;20984;43.508;1.504;2023-07-16T02:59:23;8.93;;;3.47;;
34765;SDS011;20984;43.508;1.504;2023-07-16T03:01:48;6.47;;;2.63;;
34765;SDS011;20984;43.508;1.504;2023-07-16T03:04:14;11.35;;;3.17;;
34765;SDS011;20984;43.508;1.504;2023-07-16T03:06:40;7.75;;;2.70;;
34765;SDS011;20984;43.508;1.504;2023-07-16T03:09:06;8.18;;;2.90;;
34765;SDS011;20984;43.508;1.504;2023-07-16T03:11:31;4.75;;;2.63;;
34765;SDS011;20984;43.508;1.504;2023-07-16T03:13:57;8.98;;;3.22;;
34765;SDS011;20984;43.508;1.504;2023-07-16T03:16:23;7.63;;;2.83;;
34765;SDS011;20984;43.508;1.504;2023-07-16T03:18:48;7.80;;;2.63;;
34765;SDS011;20984;43.508;1.504;2023-07-16T03:21:14;6.97;;;2.70;;
34765;SDS011;20984;43.508;1.504;2023-07-16T03:23:40;5.82;;;2.80;;
34765;SDS011;20984;43.508;1.504;2023-07-16T03:26:05;4.13;;;2.72;;
34765;SDS011;20984;43.508;1.504;2023-07-16T03:28:31;4.32;;;2.40;;
34765;SDS011;20984;43.508;1.504;2023-07-16T03:30:57;7.88;;;2.60;;
34765;SDS011;20984;43.508;1.504;2023-07-16T03:33:22;10.95;;;3.30;;
34765;SDS011;20984;43.508;1.504;2023-07-16T03:35:48;8.20;;;3.40;;
34765;SDS011;20984;43.508;1.504;2023-07-16T03:38:14;3.65;;;2.38;;
34765;SDS011;20984;43.508;1.504;2023-07-16T03:40:42;7.20;;;3.00;;
34765;SDS011;20984;43.508;1.504;2023-07-16T03:43:11;7.70;;;2.97;;
34765;SDS011;20984;43.508;1.504;2023-07-16T03:45:37;4.38;;;2.78;;
34765;SDS011;20984;43.508;1.504;2023-07-16T03:48:03;9.23;;;2.95;;
34765;SDS011;20984;43.508;1.504;2023-07-16T03:50:29;6.78;;;2.70;;
34765;SDS011;20984;43.508;1.504;2023-07-16T03:52:55;7.75;;;2.83;;
34765;SDS011;20984;43.508;1.504;2023-07-16T03:55:20;10.07;;;2.92;;
34765;SDS011;20984;43.508;1.504;2023-07-16T03:57:46;6.63;;;2.47;;
34765;SDS011;20984;43.508;1.504;2023-07-16T04:00:12;6.60;;;3.03;;
34765;SDS011;20984;43.508;1.504;2023-07-16T04:02:38;7.47;;;2.85;;
34765;SDS011;20984;43.508;1.504;2023-07-16T04:05:03;5.82;;;2.50;;
34765;SDS011;20984;43.508;1.504;2023-07-16T04:07:29;7.50;;;2.67;;
34765;SDS011;20984;43.508;1.504;2023-07-16T04:09:55;5.40;;;2.67;;
34765;SDS011;20984;43.508;1.504;2023-07-16T04:12:21;5.55;;;2.75;;
34765;SDS011;20984;43.508;1.504;2023-07-16T04:14:47;6.07;;;2.83;;
34765;SDS011;20984;43.508;1.504;2023-07-16T04:17:12;7.25;;;2.70;;
34765;SDS011;20984;43.508;1.504;2023-07-16T04:19:38;7.57;;;3.38;;
34765;SDS011;20984;43.508;1.504;2023-07-16T04:22:04;6.22;;;2.85;;
34765;SDS011;20984;43.508;1.504;2023-07-16T04:24:30;11.45;;;2.65;;
34765;SDS011;20984;43.508;1.504;2023-07-16T04:26:55;6.07;;;2.88;;
34765;SDS011;20984;43.508;1.504;2023-07-16T04:29:21;9.00;;;2.88;;
34765;SDS011;20984;43.508;1.504;2023-07-16T04:31:47;5.50;;;2.70;;
34765;SDS011;20984;43.508;1.504;2023-07-16T04:34:13;7.18;;;3.58;;
34765;SDS011;20984;43.508;1.504;2023-07-16T04:36:38;6.97;;;3.10;;
34765;SDS011;20984;43.508;1.504;2023-07-16T04:39:04;9.15;;;3.13;;
34765;SDS011;20984;43.508;1.504;2023-07-16T04:41:30;7.82;;;3.13;;
34765;SDS011;20984;43.508;1.504;2023-07-16T04:43:56;8.63;;;2.70;;
34765;SDS011;20984;43.508;1.504;2023-07-16T04:46:22;9.05;;;3.65;;
34765;SDS011;20984;43.508;1.504;2023-07-16T04:48:47;6.38;;;2.53;;
34765;SDS011;20984;43.508;1.504;2023-07-16T04:51:13;6.78;;;2.40;;
34765;SDS011;20984;43.508;1.504;2023-07-16T04:53:39;4.90;;;2.30;;
34765;SDS011;20984;43.508;1.504;2023-07-16T04:56:04;6.75;;;2.38;;
34765;SDS011;20984;43.508;1.504;2023-07-16T04:58:39;10.73;;;4.25;;
34765;SDS011;20984;43.508;1.504;2023-07-16T05:01:04;9.70;;;2.75;;
34765;SDS011;20984;43.508;1.504;2023-07-16T05:03:30;7.78;;;3.45;;
34765;SDS011;20984;43.508;1.504;2023-07-16T05:05:56;7.30;;;2.50;;
34765;SDS011;20984;43.508;1.504;2023-07-16T05:08:21;8.15;;;2.83;;
34765;SDS011;20984;43.508;1.504;2023-07-16T05:10:47;6.43;;;2.60;;
34765;SDS011;20984;43.508;1.504;2023-07-16T05:13:13;8.13;;;2.85;;
34765;SDS011;20984;43.508;1.504;2023-07-16T05:15:40;7.20;;;2.92;;
34765;SDS011;20984;43.508;1.504;2023-07-16T05:18:08;8.68;;;2.70;;
34765;SDS011;20984;43.508;1.504;2023-07-16T05:20:33;6.03;;;2.47;;
34765;SDS011;20984;43.508;1.504;2023-07-16T05:22:59;8.07;;;2.90;;
34765;SDS011;20984;43.508;1.504;2023-07-16T05:25:25;5.28;;;2.22;;
34765;SDS011;20984;43.508;1.504;2023-07-16T05:27:50;8.93;;;2.78;;
34765;SDS011;20984;43.508;1.504;2023-07-16T05:30:16;6.55;;;2.28;;
34765;SDS011;20984;43.508;1.504;2023-07-16T05:32:42;8.90;;;3.03;;
34765;SDS011;20984;43.508;1.504;2023-07-16T05:35:07;7.00;;;2.85;;
34765;SDS011;20984;43.508;1.504;2023-07-16T05:37:33;9.40;;;2.90;;
34765;SDS011;20984;43.508;1.504;2023-07-16T05:39:59;9.00;;;3.28;;
34765;SDS011;20984;43.508;1.504;2023-07-16T05:42:24;10.43;;;3.63;;
34765;SDS011;20984;43.508;1.504;2023-07-16T05:44:50;7.70;;;2.90;;
34765;SDS011;20984;43.508;1.504;2023-07-16T05:47:16;8.18;;;2.92;;
34765;SDS011;20984;43.508;1.504;2023-07-16T05:49:41;10.68;;;3.20;;
34765;SDS011;20984;43.508;1.504;2023-07-16T05:52:07;7.90;;;2.65;;
34765;SDS011;20984;43.508;1.504;2023-07-16T05:54:33;10.23;;;2.80;;
34765;SDS011;20984;43.508;1.504;2023-07-16T05:56:59;6.88;;;2.70;;
34765;SDS011;20984;43.508;1.504;2023-07-16T05:59:25;8.80;;;3.17;;
34765;SDS011;20984;43.508;1.504;2023-07-16T06:01:51;9.93;;;2.70;;
34765;SDS011;20984;43.508;1.504;2023-07-16T06:04:17;10.25;;;2.72;;
34765;SDS011;20984;43.508;1.504;2023-07-16T06:06:42;9.07;;;3.33;;
34765;SDS011;20984;43.508;1.504;2023-07-16T06:09:08;9.80;;;2.40;;
34765;SDS011;20984;43.508;1.504;2023-07-16T06:11:34;9.50;;;2.78;;
34765;SDS011;20984;43.508;1.504;2023-07-16T06:13:59;11.43;;;2.80;;
34765;SDS011;20984;43.508;1.504;2023-07-16T06:16:25;11.13;;;2.50;;
34765;SDS011;20984;43.508;1.504;2023-07-16T06:18:51;10.18;;;3.17;;
34765;SDS011;20984;43.508;1.504;2023-07-16T06:21:16;9.95;;;3.05;;
34765;SDS011;20984;43.508;1.504;2023-07-16T06:23:42;8.90;;;3.10;;
34765;SDS011;20984;43.508;1.504;2023-07-16T06:26:08;7.35;;;2.83;;
34765;SDS011;20984;43.508;1.504;2023-07-16T06:28:34;10.60;;;3.47;;
34765;SDS011;20984;43.508;1.504;2023-07-16T06:30:59;7.07;;;2.85;;
34765;SDS011;20984;43.508;1.504;2023-07-16T06:33:25;7.85;;;2.60;;
34765;SDS011;20984;43.508;1.504;2023-07-16T06:35:52;6.88;;;2.60;;
34765;SDS011;20984;43.508;1.504;2023-07-16T06:38:18;10.15;;;2.65;;
34765;SDS011;20984;43.508;1.504;2023-07-16T06:40:47;6.40;;;2.35;;
34765;SDS011;20984;43.508;1.504;2023-07-16T06:43:14;7.57;;;3.13;;
34765;SDS011;20984;43.508;1.504;2023-07-16T06:45:40;5.85;;;2.78;;
34765;SDS011;20984;43.508;1.504;2023-07-16T06:48:06;10.00;;;3.75;;
34765;SDS011;20984;43.508;1.504;2023-07-16T06:50:31;6.80;;;2.80;;
34765;SDS011;20984;43.508;1.504;2023-07-16T06:52:57;8.30;;;3.00;;
34765;SDS011;20984;43.508;1.504;2023-07-16T06:55:22;9.10;;;2.70;;
34765;SDS011;20984;43.508;1.504;2023-07-16T06:57:48;8.40;;;2.88;;
34765;SDS011;20984;43.508;1.504;2023-07-16T07:00:14;9.07;;;2.78;;
34765;SDS011;20984;43.508;1.504;2023-07-16T07:02:40;8.07;;;2.88;;
34765;SDS011;20984;43.508;1.504;2023-07-16T07:05:07;10.32;;;3.55;;
34765;SDS011;20984;43.508;1.504;2023-07-16T07:07:32;7.53;;;3.05;;
34765;SDS011;20984;43.508;1.504;2023-07-16T07:09:58;8.85;;;3.00;;
34765;SDS011;20984;43.508;1.504;2023-07-16T07:12:24;8.88;;;2.67;;
34765;SDS011;20984;43.508;1.504;2023-07-16T07:14:49;12.23;;;2.90;;
34765;SDS011;20984;43.508;1.504;2023-07-16T07:17:15;5.95;;;2.67;;
34765;SDS011;20984;43.508;1.504;2023-07-16T07:19:41;7.93;;;2.33;;
34765;SDS011;20984;43.508;1.504;2023-07-16T07:22:08;8.50;;;2.20;;
34765;SDS011;20984;43.508;1.504;2023-07-16T07:24:34;8.98;;;2.60;;
34765;SDS011;20984;43.508;1.504;2023-07-16T07:26:59;9.85;;;3.20;;
34765;SDS011;20984;43.508;1.504;2023-07-16T07:29:25;13.93;;;3.10;;
34765;SDS011;20984;43.508;1.504;2023-07-16T07:31:52;9.68;;;2.65;;
34765;SDS011;20984;43.508;1.504;2023-07-16T07:34:18;9.23;;;2.60;;
34765;SDS011;20984;43.508;1.504;2023-07-16T07:36:44;11.88;;;2.80;;
34765;SDS011;20984;43.508;1.504;2023-07-16T07:39:10;10.73;;;2.80;;
34765;SDS011;20984;43.508;1.504;2023-07-16T07:41:35;7.57;;;2.72;;
34765;SDS011;20984;43.508;1.504;2023-07-16T07:44:01;9.88;;;2.83;;
34765;SDS011;20984;43.508;1.504;2023-07-16T07:46:27;7.50;;;2.63;;
34765;SDS011;20984;43.508;1.504;2023-07-16T07:48:53;8.13;;;2.38;;
34765;SDS011;20984;43.508;1.504;2023-07-16T07:51:19;12.32;;;2.40;;
34765;SDS011;20984;43.508;1.504;2023-07-16T07:53:45;11.52;;;3.00;;
34765;SDS011;20984;43.508;1.504;2023-07-16T07:56:11;13.68;;;2.70;;
34765;SDS011;20984;43.508;1.504;2023-07-16T07:58:36;7.97;;;2.60;;
34765;SDS011;20984;43.508;1.504;2023-07-16T08:01:08;11.23;;;2.53;;
34765;SDS011;20984;43.508;1.504;2023-07-16T08:03:34;5.18;;;2.38;;
34765;SDS011;20984;43.508;1.504;2023-07-16T08:06:00;6.68;;;1.88;;
34765;SDS011;20984;43.508;1.504;2023-07-16T08:08:26;8.30;;;2.75;;
34765;SDS011;20984;43.508;1.504;2023-07-16T08:10:52;6.78;;;2.60;;
34765;SDS011;20984;43.508;1.504;2023-07-16T08:13:19;10.68;;;2.97;;
34765;SDS011;20984;43.508;1.504;2023-07-16T08:15:45;9.95;;;2.88;;
34765;SDS011;20984;43.508;1.504;2023-07-16T08:18:10;9.80;;;2.55;;
34765;SDS011;20984;43.508;1.504;2023-07-16T08:20:36;12.77;;;2.55;;
34765;SDS011;20984;43.508;1.504;2023-07-16T08:23:02;8.63;;;2.50;;
34765;SDS011;20984;43.508;1.504;2023-07-16T08:25:28;7.65;;;2.50;;
34765;SDS011;20984;43.508;1.504;2023-07-16T08:27:53;11.27;;;2.45;;
34765;SDS011;20984;43.508;1.504;2023-07-16T08:30:19;6.88;;;2.58;;
34765;SDS011;20984;43.508;1.504;2023-07-16T08:32:45;9.68;;;3.42;;
34765;SDS011;20984;43.508;1.504;2023-07-16T08:35:10;7.70;;;2.35;;
34765;SDS011;20984;43.508;1.504;2023-07-16T08:37:44;9.63;;;2.30;;
34765;SDS011;20984;43.508;1.504;2023-07-16T08:40:11;11.02;;;3.00;;
34765;SDS011;20984;43.508;1.504;2023-07-16T08:42:38;8.20;;;2.88;;
34765;SDS011;20984;43.508;1.504;2023-07-16T08:45:06;9.88;;;2.45;;
34765;SDS011;20984;43.508;1.504;2023-07-16T08:47:32;11.70;;;3.25;;
34765;SDS011;20984;43.508;1.504;2023-07-16T08:49:59;7.72;;;2.53;;
34765;SDS011;20984;43.508;1.504;2023-07-16T08:52:27;5.60;;;2.22;;
34765;SDS011;20984;43.508;1.504;2023-07-16T08:54:53;7.22;;;2.40;;
34765;SDS011;20984;43.508;1.504;2023-07-16T08:57:19;8.50;;;2.13;;
34765;SDS011;20984;43.508;1.504;2023-07-16T08:59:49;5.88;;;2.30;;
34765;SDS011;20984;43.508;1.504;2023-07-16T09:02:17;5.85;;;2.20;;
34765;SDS011;20984;43.508;1.504;2023-07-16T09:04:43;7.30;;;3.10;;
34765;SDS011;20984;43.508;1.504;2023-07-16T09:07:10;9.40;;;2.42;;
34765;SDS011;20984;43.508;1.504;2023-07-16T09:09:36;8.90;;;2.58;;
34765;SDS011;20984;43.508;1.504;2023-07-16T09:12:02;11.07;;;2.83;;
34765;SDS011;20984;43.508;1.504;2023-07-16T09:14:28;9.13;;;2.15;;
34765;SDS011;20984;43.508;1.504;2023-07-16T09:16:53;7.80;;;2.60;;
34765;SDS011;20984;43.508;1.504;2023-07-16T09:19:19;9.50;;;2.47;;
34765;SDS011;20984;43.508;1.504;2023-07-16T09:21:49;6.63;;;2.00;;
34765;SDS011;20984;43.508;1.504;2023-07-16T09:24:15;8.50;;;2.50;;
34765;SDS011;20984;43.508;1.504;2023-07-16T09:26:48;11.57;;;2.13;;
34765;SDS011;20984;43.508;1.504;2023-07-16T09:29:18;4.55;;;2.05;;
34765;SDS011;20984;43.508;1.504;2023-07-16T09:34:28;8.90;;;2.60;;
34765;SDS011;20984;43.508;1.504;2023-07-16T09:36:55;8.13;;;2.47;;
34765;SDS011;20984;43.508;1.504;2023-07-16T09:39:22;8.45;;;2.38;;
34765;SDS011;20984;43.508;1.504;2023-07-16T09:41:48;9.88;;;2.60;;
34765;SDS011;20984;43.508;1.504;2023-07-16T09:44:14;9.38;;;2.28;;
34765;SDS011;20984;43.508;1.504;2023-07-16T09:46:41;6.40;;;2.25;;
34765;SDS011;20984;43.508;1.504;2023-07-16T09:49:08;6.75;;;2.20;;
34765;SDS011;20984;43.508;1.504;2023-07-16T09:51:37;12.10;;;4.35;;
34765;SDS011;20984;43.508;1.504;2023-07-16T09:54:03;7.80;;;2.47;;
34765;SDS011;20984;43.508;1.504;2023-07-16T09:56:40;6.55;;;1.75;;
34765;SDS011;20984;43.508;1.504;2023-07-16T09:59:23;7.82;;;2.05;;
34765;SDS011;20984;43.508;1.504;2023-07-16T10:01:52;5.72;;;2.50;;
34765;SDS011;20984;43.508;1.504;2023-07-16T10:04:18;10.10;;;2.92;;
34765;SDS011;20984;43.508;1.504;2023-07-16T10:06:52;8.10;;;2.15;;
34765;SDS011;20984;43.508;1.504;2023-07-16T10:09:33;7.32;;;1.88;;
34765;SDS011;20984;43.508;1.504;2023-07-16T10:12:16;6.28;;;2.00;;
34765;SDS011;20984;43.508;1.504;2023-07-16T10:14:50;6.95;;;2.35;;
34765;SDS011;20984;43.508;1.504;2023-07-16T10:17:24;5.57;;;1.95;;
34765;SDS011;20984;43.508;1.504;2023-07-16T10:22:46;6.85;;;2.30;;
34765;SDS011;20984;43.508;1.504;2023-07-16T10:27:47;8.13;;;2.00;;
34765;SDS011;20984;43.508;1.504;2023-07-16T10:30:14;6.25;;;1.98;;
34765;SDS011;20984;43.508;1.504;2023-07-16T10:32:40;6.22;;;1.90;;
34765;SDS011;20984;43.508;1.504;2023-07-16T10:35:07;8.70;;;1.58;;
34765;SDS011;20984;43.508;1.504;2023-07-16T10:37:34;7.97;;;2.00;;
34765;SDS011;20984;43.508;1.504;2023-07-16T10:40:00;4.60;;;1.85;;
34765;SDS011;20984;43.508;1.504;2023-07-16T10:42:30;8.32;;;2.15;;
34765;SDS011;20984;43.508;1.504;2023-07-16T10:45:03;7.53;;;2.00;;
34765;SDS011;20984;43.508;1.504;2023-07-16T10:47:33;4.10;;;2.50;;
34765;SDS011;20984;43.508;1.504;2023-07-16T10:50:02;5.82;;;1.77;;
34765;SDS011;20984;43.508;1.504;2023-07-16T10:52:30;4.78;;;1.65;;
34765;SDS011;20984;43.508;1.504;2023-07-16T10:54:55;3.85;;;1.90;;
34765;SDS011;20984;43.508;1.504;2023-07-16T10:57:23;7.88;;;1.85;;
34765;SDS011;20984;43.508;1.504;2023-07-16T10:59:56;4.90;;;1.88;;
34765;SDS011;20984;43.508;1.504;2023-07-16T11:02:23;6.43;;;2.25;;
34765;SDS011;20984;43.508;1.504;2023-07-16T11:04:50;3.80;;;1.70;;
34765;SDS011;20984;43.508;1.504;2023-07-16T11:07:20;6.07;;;2.13;;
34765;SDS011;20984;43.508;1.504;2023-07-16T11:09:47;3.67;;;1.98;;
34765;SDS011;20984;43.508;1.504;2023-07-16T11:12:14;3.80;;;1.45;;
34765;SDS011;20984;43.508;1.504;2023-07-16T11:14:42;3.97;;;2.30;;
34765;SDS011;20984;43.508;1.504;2023-07-16T11:17:10;4.55;;;1.73;;
34765;SDS011;20984;43.508;1.504;2023-07-16T11:19:37;5.85;;;2.15;;
34765;SDS011;20984;43.508;1.504;2023-07-16T11:22:03;4.55;;;1.80;;
34765;SDS011;20984;43.508;1.504;2023-07-16T11:24:43;5.55;;;2.03;;
34765;SDS011;20984;43.508;1.504;2023-07-16T11:32:29;6.67;;;2.00;;
34765;SDS011;20984;43.508;1.504;2023-07-16T11:34:55;6.35;;;2.03;;
34765;SDS011;20984;43.508;1.504;2023-07-16T11:37:21;5.10;;;1.92;;
34765;SDS011;20984;43.508;1.504;2023-07-16T11:39:49;3.88;;;2.00;;
34765;SDS011;20984;43.508;1.504;2023-07-16T11:42:18;5.90;;;2.10;;
34765;SDS011;20984;43.508;1.504;2023-07-16T11:44:48;5.88;;;1.80;;
34765;SDS011;20984;43.508;1.504;2023-07-16T11:47:14;4.25;;;1.42;;
34765;SDS011;20984;43.508;1.504;2023-07-16T11:49:40;5.80;;;1.77;;
34765;SDS011;20984;43.508;1.504;2023-07-16T11:52:06;4.80;;;1.92;;
34765;SDS011;20984;43.508;1.504;2023-07-16T11:54:32;6.70;;;2.33;;
34765;SDS011;20984;43.508;1.504;2023-07-16T11:56:58;5.25;;;1.90;;
34765;SDS011;20984;43.508;1.504;2023-07-16T11:59:24;4.25;;;1.63;;
34765;SDS011;20984;43.508;1.504;2023-07-16T12:01:49;4.32;;;1.77;;
34765;SDS011;20984;43.508;1.504;2023-07-16T12:04:16;8.73;;;2.03;;
34765;SDS011;20984;43.508;1.504;2023-07-16T12:06:42;4.15;;;1.40;;
34765;SDS011;20984;43.508;1.504;2023-07-16T12:09:08;5.05;;;1.83;;
34765;SDS011;20984;43.508;1.504;2023-07-16T12:11:33;4.30;;;1.80;;
34765;SDS011;20984;43.508;1.504;2023-07-16T12:13:59;3.10;;;1.73;;
34765;SDS011;20984;43.508;1.504;2023-07-16T12:16:25;5.63;;;1.70;;
34765;SDS011;20984;43.508;1.504;2023-07-16T12:18:50;4.55;;;1.83;;
34765;SDS011;20984;43.508;1.504;2023-07-16T12:21:16;4.82;;;1.70;;
34765;SDS011;20984;43.508;1.504;2023-07-16T12:23:42;4.35;;;1.70;;
34765;SDS011;20984;43.508;1.504;2023-07-16T12:26:07;2.95;;;1.45;;
34765;SDS011;20984;43.508;1.504;2023-07-16T12:28:33;5.60;;;1.67;;
34765;SDS011;20984;43.508;1.504;2023-07-16T12:30:59;6.78;;;1.80;;
34765;SDS011;20984;43.508;1.504;2023-07-16T12:33:25;3.35;;;1.60;;
34765;SDS011;20984;43.508;1.504;2023-07-16T12:35:50;6.88;;;1.90;;
34765;SDS011;20984;43.508;1.504;2023-07-16T12:38:16;6.07;;;1.77;;
34765;SDS011;20984;43.508;1.504;2023-07-16T12:40:42;3.60;;;1.58;;
34765;SDS011;20984;43.508;1.504;2023-07-16T12:43:08;5.78;;;1.80;;
34765;SDS011;20984;43.508;1.504;2023-07-16T12:45:34;4.40;;;1.50;;
34765;SDS011;20984;43.508;1.504;2023-07-16T12:47:59;3.65;;;1.55;;
34765;SDS011;20984;43.508;1.504;2023-07-16T12:50:25;5.07;;;1.67;;
34765;SDS011;20984;43.508;1.504;2023-07-16T12:52:53;4.57;;;2.20;;
34765;SDS011;20984;43.508;1.504;2023-07-16T12:55:18;3.25;;;1.30;;
34765;SDS011;20984;43.508;1.504;2023-07-16T12:57:44;4.88;;;1.52;;
34765;SDS011;20984;43.508;1.504;2023-07-16T13:00:10;5.32;;;1.85;;
34765;SDS011;20984;43.508;1.504;2023-07-16T13:02:36;5.45;;;1.83;;
34765;SDS011;20984;43.508;1.504;2023-07-16T13:05:02;4.72;;;1.63;;
34765;SDS011;20984;43.508;1.504;2023-07-16T13:07:28;6.15;;;2.08;;
34765;SDS011;20984;43.508;1.504;2023-07-16T13:09:55;5.53;;;1.70;;
34765;SDS011;20984;43.508;1.504;2023-07-16T13:12:20;7.88;;;1.88;;
34765;SDS011;20984;43.508;1.504;2023-07-16T13:14:46;6.22;;;2.25;;
34765;SDS011;20984;43.508;1.504;2023-07-16T13:17:12;7.88;;;2.03;;
34765;SDS011;20984;43.508;1.504;2023-07-16T13:19:37;3.58;;;1.30;;
34765;SDS011;20984;43.508;1.504;2023-07-16T13:22:03;4.47;;;1.23;;
34765;SDS011;20984;43.508;1.504;2023-07-16T13:24:29;4.78;;;1.60;;
34765;SDS011;20984;43.508;1.504;2023-07-16T13:26:54;4.97;;;1.63;;
34765;SDS011;20984;43.508;1.504;2023-07-16T13:29:20;3.25;;;1.50;;
34765;SDS011;20984;43.508;1.504;2023-07-16T13:31:46;7.07;;;1.88;;
34765;SDS011;20984;43.508;1.504;2023-07-16T13:34:12;8.23;;;2.40;;
34765;SDS011;20984;43.508;1.504;2023-07-16T13:36:38;6.10;;;2.00;;
34765;SDS011;20984;43.508;1.504;2023-07-16T13:39:04;5.88;;;1.50;;
34765;SDS011;20984;43.508;1.504;2023-07-16T13:41:30;5.43;;;1.60;;
34765;SDS011;20984;43.508;1.504;2023-07-16T13:43:55;7.03;;;1.75;;
34765;SDS011;20984;43.508;1.504;2023-07-16T13:46:21;8.35;;;1.77;;
34765;SDS011;20984;43.508;1.504;2023-07-16T13:48:47;3.10;;;1.50;;
34765;SDS011;20984;43.508;1.504;2023-07-16T13:51:12;8.52;;;1.80;;
34765;SDS011;20984;43.508;1.504;2023-07-16T13:53:38;4.72;;;1.83;;
34765;SDS011;20984;43.508;1.504;2023-07-16T13:56:04;4.55;;;1.42;;
34765;SDS011;20984;43.508;1.504;2023-07-16T13:58:30;8.77;;;1.98;;
34765;SDS011;20984;43.508;1.504;2023-07-16T14:00:55;5.18;;;1.60;;
34765;SDS011;20984;43.508;1.504;2023-07-16T14:03:21;6.05;;;2.20;;
34765;SDS011;20984;43.508;1.504;2023-07-16T14:05:46;5.65;;;1.85;;
34765;SDS011;20984;43.508;1.504;2023-07-16T14:08:12;5.93;;;1.92;;
34765;SDS011;20984;43.508;1.504;2023-07-16T14:10:38;3.30;;;1.23;;
34765;SDS011;20984;43.508;1.504;2023-07-16T14:13:03;4.30;;;1.65;;
34765;SDS011;20984;43.508;1.504;2023-07-16T14:15:29;8.60;;;1.92;;
34765;SDS011;20984;43.508;1.504;2023-07-16T14:17:55;5.47;;;1.92;;
34765;SDS011;20984;43.508;1.504;2023-07-16T14:20:20;7.32;;;2.40;;
34765;SDS011;20984;43.508;1.504;2023-07-16T14:22:46;4.00;;;1.52;;
34765;SDS011;20984;43.508;1.504;2023-07-16T14:25:12;5.85;;;1.65;;
34765;SDS011;20984;43.508;1.504;2023-07-16T14:27:37;5.22;;;1.50;;
34765;SDS011;20984;43.508;1.504;2023-07-16T14:30:03;5.70;;;1.50;;
34765;SDS011;20984;43.508;1.504;2023-07-16T14:32:29;4.93;;;1.55;;
34765;SDS011;20984;43.508;1.504;2023-07-16T14:34:56;5.30;;;2.40;;
34765;SDS011;20984;43.508;1.504;2023-07-16T14:37:22;7.20;;;1.98;;
34765;SDS011;20984;43.508;1.504;2023-07-16T14:39:48;4.93;;;1.58;;
34765;SDS011;20984;43.508;1.504;2023-07-16T14:42:13;5.13;;;1.55;;
34765;SDS011;20984;43.508;1.504;2023-07-16T14:44:39;7.57;;;1.63;;
34765;SDS011;20984;43.508;1.504;2023-07-16T14:47:05;4.95;;;1.52;;
34765;SDS011;20984;43.508;1.504;2023-07-16T14:49:31;6.95;;;1.67;;
34765;SDS011;20984;43.508;1.504;2023-07-16T14:51:57;4.97;;;1.58;;
34765;SDS011;20984;43.508;1.504;2023-07-16T14:54:22;4.82;;;1.80;;
34765;SDS011;20984;43.508;1.504;2023-07-16T14:56:48;7.13;;;1.58;;
34765;SDS011;20984;43.508;1.504;2023-07-16T14:59:14;5.10;;;1.40;;
34765;SDS011;20984;43.508;1.504;2023-07-16T15:01:39;7.15;;;1.30;;
34765;SDS011;20984;43.508;1.504;2023-07-16T15:04:05;5.43;;;1.48;;
34765;SDS011;20984;43.508;1.504;2023-07-16T15:06:31;3.97;;;1.27;;